Louisville, KY (40201)

10:08 AM EDT on July 23, 2016 (GMT -0400)
portland | | Change Station
Active Advisory: Heat Advisory

Elev 459 ft 38.27 °N, 85.78 °W | Updated 0 second ago

Scattered Clouds
Scattered Clouds
84.0 °F
Feels Like 90 °F
N
1.7
Wind Variable Wind from South

Today
High -- | Low -- °F
--% Chance of Precip.
Yesterday
High -- | Low -- °F
Precip. -- in
Pressure 30.01 in
Visibility 9.0 miles
Clouds Scattered Clouds 25000 ft
Heat Index 90 °F
Dew Point 73 °F
Humidity 69%
Rainfall 0.00 in
Snow Depth Not available.
6:38 AM 9:00 PM
Waning Gibbous, 85% visible
METAR KSDF 231356Z 00000KT 9SM SCT250 28/22 A3003 RMK AO2 SLP163 T02780222
Pressure 30.01 in
Visibility 9.0 miles
Clouds Scattered Clouds 25000 ft
Heat Index 90 °F
Dew Point 73 °F
Humidity 69%
Rainfall 0.00 in
Snow Depth Not available.
6:38 AM 9:00 PM
Waning Gibbous, 85% visible
METAR KSDF 231356Z 00000KT 9SM SCT250 28/22 A3003 RMK AO2 SLP163 T02780222

10-Day Weather Forecast

Almanac

Astronomy

Jul. 23, 2016 Rise Set
Actual Time
Civil Twilight
Nautical Twilight
Astronomical Twilight
Moon
Length of Visible Light
Length of Day
Tomorrow will be .
, % of the Moon is Illuminated

Today's Extremes

State Highs State Lows

Community

WunderPhotos

Upload Photos

1,926,821 photos uploaded!

WunderBlog® & News

Nearby

Air Quality

  Air Quality AQ Index Pollutant
Not available.

Snow Depth

Station Depth Elevation

Earthquake Activity

City Distance Mag. Time & Date
Minimum magnitude displayed is 2.5.

Coastal Water Temperatures

Place Temperature

Stations

Nearby Weather Stations

Station Location Temp. Windchill Dew Point Humidity Wind Precip. Elev Updated Type
                   

Watches & Warnings

Heat Advisory
Issued: 9:01 AM CDT Jul. 23, 2016 – National Weather Service

... Heat advisory remains in effect until 8 PM EDT /7 PM CDT/ this
evening...

* temperature... high temperatures in the afternoon will warm into
the lower to middle 90s. These temperatures combined with
dewpoints in the lower to middle 70s will produce heat index
readings in the 100 to 105 degree range this afternoon.

Precautionary/preparedness actions...

Take extra precautions... if you work or spend time outside. When
possible... reschedule strenuous activities to early morning or
evening. Know the signs and symptoms of heat exhaustion and heat
stroke. Wear light weight and loose fitting clothing when
possible and drink plenty of water.



Rjs